Time;durP1;ratioP1;P1;durP2;ratioP2;P2;SDS_P1;SDS_P2;PMS_P1;PMS_P2;Temp;Humidity;BMP_temperature;BMP_pressure;BME280_temperature;BME280_humidity;BME280_pressure;Samples;Min_cycle;Max_cycle;Signal;HPM_P1;HPM_P2
2023/07/24 00:02:08;;;;;;;2.90;1.80;;;;;;;;;;4975351;28;20042;-82
2023/07/24 00:04:35;;;;;;;4.22;1.70;;;;;;;;;;4974582;28;20133;-82
2023/07/24 00:07:01;;;;;;;3.72;1.85;;;;;;;;;;4975197;28;20105;-83
2023/07/24 00:09:27;;;;;;;4.78;1.90;;;;;;;;;;5007398;28;20034;-84
2023/07/24 00:11:55;;;;;;;;;;;;;;;;;;4978436;28;20037;-82
2023/07/24 00:14:21;;;;;;;3.40;1.85;;;;;;;;;;4992722;28;19970;-83
2023/07/24 00:16:48;;;;;;;3.55;1.75;;;;;;;;;;4977607;28;20085;-83
2023/07/24 00:19:15;;;;;;;6.32;2.10;;;;;;;;;;4978742;28;20188;-82
2023/07/24 00:21:41;;;;;;;4.40;1.70;;;;;;;;;;4961766;28;20034;-81
2023/07/24 00:24:17;;;;;;;3.33;1.60;;;;;;;;;;4961546;28;20030;-82
2023/07/24 00:26:43;;;;;;;4.30;1.90;;;;;;;;;;4976772;28;20053;-82
2023/07/24 00:29:09;;;;;;;4.60;2.05;;;;;;;;;;4977963;28;20038;-83
2023/07/24 00:31:35;;;;;;;4.05;1.90;;;;;;;;;;4977409;28;20125;-83
2023/07/24 00:34:01;;;;;;;4.28;2.05;;;;;;;;;;4979684;28;20030;-83
2023/07/24 00:36:27;;;;;;;3.60;1.90;;;;;;;;;;4961922;28;20085;-83
2023/07/24 00:38:53;;;;;;;5.57;1.90;;;;;;;;;;4959684;28;20034;-83
2023/07/24 00:41:19;;;;;;;3.08;1.80;;;;;;;;;;4992175;28;20045;-82
2023/07/24 00:43:47;;;;;;;4.13;2.10;;;;;;;;;;4960789;28;20038;-82
2023/07/24 00:46:13;;;;;;;4.43;2.05;;;;;;;;;;4974475;28;20041;-82
2023/07/24 00:48:40;;;;;;;4.38;1.80;;;;;;;;;;4959029;28;20031;-82
2023/07/24 00:51:07;;;;;;;4.63;2.00;;;;;;;;;;4972271;28;20035;-82
2023/07/24 00:53:33;;;;;;;4.32;2.10;;;;;;;;;;4967656;28;20453;-83
2023/07/24 00:56:00;;;;;;;5.05;1.80;;;;;;;;;;4951236;28;20030;-83
2023/07/24 00:58:26;;;;;;;4.55;2.00;;;;;;;;;;4950224;28;20086;-82
2023/07/24 01:00:52;;;;;;;6.25;1.98;;;;;;;;;;4964192;28;20034;-81
2023/07/24 01:03:21;;;;;;;3.92;1.80;;;;;;;;;;4966027;28;20069;-81
2023/07/24 01:05:47;;;;;;;3.65;1.90;;;;;;;;;;4952044;28;20102;-82
2023/07/24 01:08:13;;;;;;;7.28;2.08;;;;;;;;;;4968566;28;20062;-84
2023/07/24 01:10:39;;;;;;;3.30;1.90;;;;;;;;;;4968307;28;20050;-82
2023/07/24 01:13:12;;;;;;;4.35;1.80;;;;;;;;;;4968734;28;20027;-85
2023/07/24 01:15:56;;;;;;;4.13;1.70;;;;;;;;;;4968871;28;20057;-81
2023/07/24 01:18:24;;;;;;;3.72;1.80;;;;;;;;;;4969891;28;20066;-82
2023/07/24 01:20:51;;;;;;;3.58;1.83;;;;;;;;;;4970101;28;20039;-83
2023/07/24 01:23:47;;;;;;;3.40;1.60;;;;;;;;;;4988359;28;20042;-83
2023/07/24 01:26:19;;;;;;;5.05;1.98;;;;;;;;;;4975786;28;20046;-82
2023/07/24 01:28:46;;;;;;;6.63;1.90;;;;;;;;;;4991022;28;20027;-82
2023/07/24 01:31:12;;;;;;;3.60;1.83;;;;;;;;;;4975792;28;20038;-81
2023/07/24 01:33:38;;;;;;;6.07;1.80;;;;;;;;;;4964686;28;20054;-82
2023/07/24 01:36:09;;;;;;;3.75;1.90;;;;;;;;;;4967084;28;20038;-84
2023/07/24 01:38:43;;;;;;;4.13;1.80;;;;;;;;;;5001239;28;20030;-83
2023/07/24 01:41:29;;;;;;;4.20;1.98;;;;;;;;;;4967972;28;20018;-82
2023/07/24 01:43:55;;;;;;;3.80;1.90;;;;;;;;;;4982841;28;20023;-82
2023/07/24 01:46:21;;;;;;;4.00;1.80;;;;;;;;;;4976947;28;20031;-82
2023/07/24 01:48:54;;;;;;;3.85;1.98;;;;;;;;;;4979038;28;20042;-83
2023/07/24 01:51:20;;;;;;;5.25;1.92;;;;;;;;;;4970301;28;20034;-83
2023/07/24 01:53:47;;;;;;;4.05;2.03;;;;;;;;;;4954262;28;20027;-83
2023/07/24 01:56:13;;;;;;;4.22;2.03;;;;;;;;;;4953841;28;20031;-84
2023/07/24 01:58:39;;;;;;;5.07;1.92;;;;;;;;;;4971477;28;20030;-82
2023/07/24 02:01:08;;;;;;;5.03;2.15;;;;;;;;;;4969069;28;20037;-82
2023/07/24 02:03:43;;;;;;;4.60;2.08;;;;;;;;;;4970834;28;20030;-83
2023/07/24 02:06:11;;;;;;;5.80;1.85;;;;;;;;;;4973182;28;20039;-84
2023/07/24 02:08:40;;;;;;;4.53;2.00;;;;;;;;;;4973953;28;20038;-82
2023/07/24 02:11:12;;;;;;;4.47;2.30;;;;;;;;;;4973299;28;20035;-84
2023/07/24 02:13:38;;;;;;;4.80;2.30;;;;;;;;;;4974892;28;20042;-83
2023/07/24 02:16:05;;;;;;;4.15;2.20;;;;;;;;;;4974862;28;20041;-83
2023/07/24 02:18:31;;;;;;;3.47;1.90;;;;;;;;;;4959277;28;20034;-81
2023/07/24 02:20:59;;;;;;;5.63;2.53;;;;;;;;;;4973541;28;20047;-82
2023/07/24 02:23:26;;;;;;;4.03;1.90;;;;;;;;;;4957220;28;20049;-83
2023/07/24 02:25:53;;;;;;;3.80;2.30;;;;;;;;;;4971111;28;20049;-81
2023/07/24 02:28:19;;;;;;;4.47;2.58;;;;;;;;;;4955205;28;20043;-82
2023/07/24 02:30:46;;;;;;;5.68;2.75;;;;;;;;;;4971690;28;20110;-82
2023/07/24 02:33:12;;;;;;;6.25;2.45;;;;;;;;;;4972114;28;20027;-81
2023/07/24 02:35:39;;;;;;;5.72;2.80;;;;;;;;;;4988568;28;20053;-82
2023/07/24 02:38:05;;;;;;;5.53;2.88;;;;;;;;;;4951839;28;20042;-82
2023/07/24 02:40:34;;;;;;;4.30;2.50;;;;;;;;;;4967314;28;20387;-82
2023/07/24 02:43:00;;;;;;;6.63;2.60;;;;;;;;;;4968589;28;20110;-84
2023/07/24 02:45:26;;;;;;;7.45;2.80;;;;;;;;;;4969043;28;20034;-81
2023/07/24 02:48:02;;;;;;;5.40;2.58;;;;;;;;;;4954319;28;20138;-84
2023/07/24 02:50:29;;;;;;;6.47;2.42;;;;;;;;;;4970707;28;20049;-83
2023/07/24 02:52:55;;;;;;;6.63;2.85;;;;;;;;;;4972009;28;20031;-83
2023/07/24 02:55:21;;;;;;;4.85;2.60;;;;;;;;;;4971474;28;20069;-81
2023/07/24 02:57:49;;;;;;;5.32;2.78;;;;;;;;;;4988282;28;20039;-82
2023/07/24 03:00:24;;;;;;;6.65;2.90;;;;;;;;;;4972656;28;20031;-81
2023/07/24 03:02:50;;;;;;;6.25;2.70;;;;;;;;;;4954558;28;20062;-82
2023/07/24 03:05:16;;;;;;;6.68;2.88;;;;;;;;;;4970002;28;20031;-82
2023/07/24 03:07:46;;;;;;;5.28;2.85;;;;;;;;;;4972294;28;20482;-83
2023/07/24 03:10:25;;;;;;;6.88;3.15;;;;;;;;;;4955085;28;20100;-83
2023/07/24 03:12:52;;;;;;;7.20;3.15;;;;;;;;;;4954781;28;20027;-83
2023/07/24 03:15:21;;;;;;;5.72;2.95;;;;;;;;;;4954718;28;20039;-83
2023/07/24 03:17:47;;;;;;;7.15;2.80;;;;;;;;;;4968542;28;20043;-82
2023/07/24 03:20:17;;;;;;;5.32;3.05;;;;;;;;;;4964994;28;20038;-83
2023/07/24 03:22:45;;;;;;;5.05;2.83;;;;;;;;;;4948553;28;20035;-83
2023/07/24 03:25:11;;;;;;;6.28;3.10;;;;;;;;;;4951475;28;20433;-81
2023/07/24 03:27:38;;;;;;;9.20;3.00;;;;;;;;;;4955696;28;20051;-80
2023/07/24 03:30:07;;;;;;;5.70;2.83;;;;;;;;;;5003783;28;20064;-83
2023/07/24 03:32:37;;;;;;;5.90;2.90;;;;;;;;;;4972329;28;20031;-83
2023/07/24 03:35:09;;;;;;;8.57;3.15;;;;;;;;;;4973914;28;20041;-84
2023/07/24 03:37:38;;;;;;;7.50;2.70;;;;;;;;;;4974193;28;20031;-83
2023/07/24 03:40:09;;;;;;;8.10;2.88;;;;;;;;;;4956082;28;20030;-83
2023/07/24 03:42:35;;;;;;;8.55;3.13;;;;;;;;;;4956318;28;20085;-85
2023/07/24 03:45:01;;;;;;;4.30;2.78;;;;;;;;;;4958046;28;20066;-83
2023/07/24 03:47:34;;;;;;;5.93;2.58;;;;;;;;;;4961615;28;20035;-82
2023/07/24 03:50:03;;;;;;;6.25;2.90;;;;;;;;;;4981019;28;20018;-82
2023/07/24 03:52:29;;;;;;;6.68;3.20;;;;;;;;;;4980524;28;20066;-81
2023/07/24 03:54:57;;;;;;;6.70;2.95;;;;;;;;;;4970178;28;20039;-83
2023/07/24 03:57:23;;;;;;;6.85;3.05;;;;;;;;;;4985971;28;20146;-83
2023/07/24 03:59:50;;;;;;;5.57;2.78;;;;;;;;;;4954045;28;20129;-84
2023/07/24 04:02:16;;;;;;;8.77;3.33;;;;;;;;;;4974154;28;20063;-85
2023/07/24 04:04:44;;;;;;;;;;;;;;;;;;4962292;28;20053;-84
2023/07/24 04:07:13;;;;;;;5.43;2.97;;;;;;;;;;4980685;28;19910;-83
2023/07/24 04:09:39;;;;;;;7.68;2.88;;;;;;;;;;4965302;28;20041;-83
2023/07/24 04:12:07;;;;;;;5.75;2.65;;;;;;;;;;4981196;28;20030;-83
2023/07/24 04:14:34;;;;;;;10.27;3.05;;;;;;;;;;4964906;28;20049;-83
2023/07/24 04:17:09;;;;;;;7.45;3.22;;;;;;;;;;4981196;28;20045;-83
2023/07/24 04:19:40;;;;;;;7.15;2.65;;;;;;;;;;4963715;28;20064;-82
2023/07/24 04:22:09;;;;;;;7.45;3.22;;;;;;;;;;4960463;28;20037;-84
2023/07/24 04:24:38;;;;;;;7.38;3.05;;;;;;;;;;4993503;28;20063;-82
2023/07/24 04:27:10;;;;;;;13.68;4.47;;;;;;;;;;4980013;28;20039;-84
2023/07/24 04:29:40;;;;;;;10.10;3.20;;;;;;;;;;4961210;28;20039;-83
2023/07/24 04:32:11;;;;;;;8.18;3.13;;;;;;;;;;4992722;28;20494;-83
2023/07/24 04:34:40;;;;;;;6.28;3.00;;;;;;;;;;4963864;28;20126;-84
2023/07/24 04:37:06;;;;;;;8.77;3.35;;;;;;;;;;4993862;28;20173;-83
2023/07/24 04:39:33;;;;;;;6.97;3.05;;;;;;;;;;4992430;28;20046;-83
2023/07/24 04:42:05;;;;;;;8.23;3.20;;;;;;;;;;4978282;28;20054;-83
2023/07/24 04:44:37;;;;;;;5.20;2.88;;;;;;;;;;4974435;28;20046;-84
2023/07/24 04:47:03;;;;;;;;;;;;;;;;;;4992789;28;20095;-82
2023/07/24 04:49:38;;;;;;;6.13;3.22;;;;;;;;;;4979594;28;19914;-82
2023/07/24 04:52:07;;;;;;;15.10;4.13;;;;;;;;;;4980370;28;20074;-83
2023/07/24 04:54:33;;;;;;;6.55;3.60;;;;;;;;;;4980049;28;20022;-83
2023/07/24 04:56:59;;;;;;;5.78;3.20;;;;;;;;;;4994479;28;20027;-82
2023/07/24 04:59:33;;;;;;;4.65;2.83;;;;;;;;;;4995596;28;20043;-83
2023/07/24 05:02:08;;;;;;;6.15;2.90;;;;;;;;;;4966802;28;20046;-84
2023/07/24 05:04:34;;;;;;;7.38;3.22;;;;;;;;;;4998886;23;20066;-77
2023/07/24 05:07:00;;;;;;;8.15;3.60;;;;;;;;;;4993409;28;20120;-77
2023/07/24 05:09:25;;;;;;;6.82;3.13;;;;;;;;;;5009988;28;20041;-76
2023/07/24 05:11:51;;;;;;;11.50;3.53;;;;;;;;;;4995122;28;20081;-76
2023/07/24 05:14:16;;;;;;;8.05;3.45;;;;;;;;;;4993522;28;20030;-76
2023/07/24 05:16:42;;;;;;;6.75;3.67;;;;;;;;;;4993829;28;20041;-77
2023/07/24 05:19:07;;;;;;;8.43;3.55;;;;;;;;;;4995124;28;20041;-76
2023/07/24 05:21:33;;;;;;;7.80;3.42;;;;;;;;;;4995137;28;20512;-76
2023/07/24 05:23:58;;;;;;;5.78;3.45;;;;;;;;;;4994559;28;20058;-76
2023/07/24 05:26:24;;;;;;;8.73;3.40;;;;;;;;;;4994555;28;20030;-75
2023/07/24 05:28:50;;;;;;;9.95;3.42;;;;;;;;;;4993632;28;20096;-75
2023/07/24 05:31:15;;;;;;;8.27;3.38;;;;;;;;;;4977347;28;20041;-77
2023/07/24 05:33:41;;;;;;;7.13;3.33;;;;;;;;;;4993785;28;20022;-76
2023/07/24 05:36:06;;;;;;;7.95;3.17;;;;;;;;;;4993691;28;20033;-75
2023/07/24 05:38:32;;;;;;;6.75;3.35;;;;;;;;;;4993349;28;20066;-74
2023/07/24 05:41:00;;;;;;;7.80;3.13;;;;;;;;;;4993188;28;20485;-77
2023/07/24 05:43:27;;;;;;;7.35;2.97;;;;;;;;;;4977104;28;20037;-77
2023/07/24 05:45:53;;;;;;;6.28;3.22;;;;;;;;;;4992981;28;20105;-77
2023/07/24 05:48:19;;;;;;;6.82;2.97;;;;;;;;;;4994204;28;20065;-74
2023/07/24 05:50:45;;;;;;;8.82;3.30;;;;;;;;;;4994343;28;20458;-75
2023/07/24 05:53:11;;;;;;;5.43;2.88;;;;;;;;;;4993964;28;20037;-77
2023/07/24 05:55:37;;;;;;;7.68;3.13;;;;;;;;;;4992517;28;20018;-76
2023/07/24 05:58:05;;;;;;;7.00;3.38;;;;;;;;;;4993020;28;20081;-76
2023/07/24 06:00:31;;;;;;;6.03;3.30;;;;;;;;;;4992978;28;20432;-75
2023/07/24 06:02:56;;;;;;;8.60;3.53;;;;;;;;;;4994041;28;20034;-76
2023/07/24 06:05:22;;;;;;;6.40;3.70;;;;;;;;;;4993489;28;20029;-77
2023/07/24 06:07:48;;;;;;;5.35;2.80;;;;;;;;;;4992376;28;20065;-77
2023/07/24 06:10:13;;;;;;;8.45;3.95;;;;;;;;;;4992355;28;20042;-75
2023/07/24 06:12:39;;;;;;;7.80;4.32;;;;;;;;;;4993777;28;20170;-77
2023/07/24 06:15:05;;;;;;;8.57;3.60;;;;;;;;;;4992661;28;20498;-76
2023/07/24 06:17:31;;;;;;;9.32;3.45;;;;;;;;;;4993746;28;20023;-76
2023/07/24 06:19:57;;;;;;;6.13;3.45;;;;;;;;;;5008548;28;20109;-76
2023/07/24 06:22:22;;;;;;;7.35;3.53;;;;;;;;;;4992254;28;20165;-73
2023/07/24 06:24:48;;;;;;;7.28;3.75;;;;;;;;;;4993272;28;20478;-77
2023/07/24 06:27:19;;;;;;;;;;;;;;;;;;4992834;28;20065;-77
2023/07/24 06:29:45;;;;;;;7.18;3.53;;;;;;;;;;4992588;28;19914;-76
2023/07/24 06:32:10;;;;;;;7.15;4.07;;;;;;;;;;5009029;28;20056;-76
2023/07/24 06:34:36;;;;;;;6.65;3.63;;;;;;;;;;4993443;28;20433;-77
2023/07/24 06:37:02;;;;;;;13.20;3.45;;;;;;;;;;4992680;28;20576;-77
2023/07/24 06:39:28;;;;;;;6.82;3.97;;;;;;;;;;4993920;28;20133;-77
2023/07/24 06:41:54;;;;;;;8.50;3.63;;;;;;;;;;4993044;28;20046;-77
2023/07/24 06:44:20;;;;;;;8.35;3.60;;;;;;;;;;4976623;28;20494;-77
2023/07/24 06:46:45;;;;;;;6.68;3.53;;;;;;;;;;4997398;28;20413;-77
2023/07/24 06:49:11;;;;;;;6.82;3.78;;;;;;;;;;5019236;28;20081;-74
2023/07/24 06:51:38;;;;;;;10.13;4.13;;;;;;;;;;5004898;28;20397;-76
2023/07/24 06:54:03;;;;;;;14.40;4.32;;;;;;;;;;5009617;28;20618;-74
2023/07/24 06:56:30;;;;;;;8.45;4.03;;;;;;;;;;5007051;28;20061;-76
2023/07/24 06:58:56;;;;;;;6.28;3.55;;;;;;;;;;5021920;28;20038;-77
2023/07/24 07:01:21;;;;;;;8.07;3.63;;;;;;;;;;5009923;28;20038;-77
2023/07/24 07:03:47;;;;;;;9.18;3.78;;;;;;;;;;4993816;28;20030;-76
2023/07/24 07:06:13;;;;;;;10.15;3.70;;;;;;;;;;4993466;28;20030;-76
2023/07/24 07:08:38;;;;;;;8.63;3.92;;;;;;;;;;4991996;28;20038;-75
2023/07/24 07:11:04;;;;;;;8.20;3.97;;;;;;;;;;4993609;28;20026;-76
2023/07/24 07:13:29;;;;;;;8.73;4.03;;;;;;;;;;4993639;28;20035;-77
2023/07/24 07:15:55;;;;;;;11.50;4.20;;;;;;;;;;4993903;28;20048;-76
2023/07/24 07:18:20;;;;;;;9.57;4.03;;;;;;;;;;4993112;28;20451;-75
2023/07/24 07:20:50;;;;;;;9.82;3.70;;;;;;;;;;5007891;28;20084;-75
2023/07/24 07:23:15;;;;;;;7.05;3.72;;;;;;;;;;4992645;28;20213;-74
2023/07/24 07:25:43;;;;;;;7.85;3.75;;;;;;;;;;4991732;28;20057;-77
2023/07/24 07:28:09;;;;;;;7.90;4.05;;;;;;;;;;4992408;28;20023;-75
2023/07/24 07:30:34;;;;;;;6.05;3.58;;;;;;;;;;4993051;28;20093;-75
2023/07/24 07:33:00;;;;;;;10.48;4.03;;;;;;;;;;5007839;28;20389;-76
2023/07/24 07:35:26;;;;;;;7.40;4.05;;;;;;;;;;5007603;28;20034;-76
2023/07/24 07:37:51;;;;;;;15.18;3.90;;;;;;;;;;4991535;28;20057;-76
2023/07/24 07:40:17;;;;;;;11.90;4.40;;;;;;;;;;4991578;28;20034;-74
2023/07/24 07:42:42;;;;;;;10.15;4.07;;;;;;;;;;4991410;28;20555;-74
2023/07/24 07:45:08;;;;;;;8.75;4.25;;;;;;;;;;4991333;28;20042;-75
2023/07/24 07:47:34;;;;;;;8.65;3.90;;;;;;;;;;4992575;28;20026;-77
2023/07/24 07:49:59;;;;;;;7.03;4.22;;;;;;;;;;4974942;28;20413;-76
2023/07/24 07:52:25;;;;;;;10.18;4.70;;;;;;;;;;4992764;28;20109;-77
2023/07/24 07:54:50;;;;;;;8.00;4.45;;;;;;;;;;4992713;28;20023;-77
2023/07/24 07:57:16;;;;;;;6.47;3.65;;;;;;;;;;4975357;28;20027;-76
2023/07/24 07:59:41;;;;;;;10.27;4.15;;;;;;;;;;5010802;28;20030;-77
2023/07/24 08:02:07;;;;;;;8.90;4.00;;;;;;;;;;4978920;28;20033;-77
2023/07/24 08:04:33;;;;;;;12.30;4.25;;;;;;;;;;4994697;28;20401;-77
2023/07/24 08:06:58;;;;;;;8.98;4.30;;;;;;;;;;4996110;28;20030;-74
2023/07/24 08:09:24;;;;;;;7.68;3.70;;;;;;;;;;4995887;28;20054;-77
2023/07/24 08:11:51;;;;;;;9.40;4.60;;;;;;;;;;5011646;28;20034;-77
2023/07/24 08:14:17;;;;;;;8.32;3.83;;;;;;;;;;4996049;28;20063;-76
2023/07/24 08:16:42;;;;;;;16.95;4.30;;;;;;;;;;5010749;28;20062;-77
2023/07/24 08:19:08;;;;;;;9.57;4.10;;;;;;;;;;5010725;28;20519;-75
2023/07/24 08:21:33;;;;;;;10.52;4.78;;;;;;;;;;4995061;28;20037;-78
2023/07/24 08:24:01;;;;;;;9.32;4.22;;;;;;;;;;4995627;28;20472;-78
2023/07/24 08:26:27;;;;;;;7.72;4.40;;;;;;;;;;4994267;28;20487;-77
2023/07/24 08:28:53;;;;;;;7.60;3.67;;;;;;;;;;4995862;28;20114;-77
2023/07/24 08:31:19;;;;;;;12.43;4.25;;;;;;;;;;4994893;28;20037;-77
2023/07/24 08:33:44;;;;;;;6.28;3.80;;;;;;;;;;5010748;28;20034;-75
2023/07/24 08:36:12;;;;;;;10.20;3.80;;;;;;;;;;4995344;28;20062;-76
2023/07/24 08:38:37;;;;;;;8.63;4.05;;;;;;;;;;4995524;28;20044;-76
2023/07/24 08:41:04;;;;;;;10.55;4.07;;;;;;;;;;4978450;28;20152;-76
2023/07/24 08:43:31;;;;;;;7.25;4.00;;;;;;;;;;4995793;28;20111;-75
2023/07/24 08:45:57;;;;;;;9.27;4.18;;;;;;;;;;4962115;28;20072;-76
2023/07/24 08:48:23;;;;;;;9.23;4.22;;;;;;;;;;4995154;28;20033;-75
2023/07/24 08:50:50;;;;;;;10.90;3.95;;;;;;;;;;5013145;28;20027;-76
2023/07/24 08:53:18;;;;;;;10.00;4.20;;;;;;;;;;4996783;28;20125;-77
2023/07/24 08:55:45;;;;;;;8.60;4.18;;;;;;;;;;4995692;28;20050;-76
2023/07/24 08:58:10;;;;;;;10.05;4.03;;;;;;;;;;5011507;28;20030;-76
2023/07/24 09:00:36;;;;;;;7.82;4.35;;;;;;;;;;4995608;28;20038;-76
2023/07/24 09:03:01;;;;;;;6.93;3.72;;;;;;;;;;4993619;28;20061;-76
2023/07/24 09:05:27;;;;;;;9.02;4.00;;;;;;;;;;4994814;28;20026;-76
2023/07/24 09:07:53;;;;;;;6.85;4.13;;;;;;;;;;4993872;28;20034;-76
2023/07/24 09:10:24;;;;;;;9.98;4.38;;;;;;;;;;4992636;28;20026;-75
2023/07/24 09:12:49;;;;;;;7.53;4.05;;;;;;;;;;4994073;28;20027;-76
2023/07/24 09:15:15;;;;;;;8.18;3.85;;;;;;;;;;4994963;28;20018;-76
2023/07/24 09:17:47;;;;;;;10.38;3.85;;;;;;;;;;4994619;28;20491;-76
2023/07/24 09:20:13;;;;;;;9.20;3.90;;;;;;;;;;5001243;28;20102;-76
2023/07/24 09:22:47;;;;;;;8.73;4.53;;;;;;;;;;5006919;28;20030;-76
2023/07/24 09:25:12;;;;;;;7.22;4.03;;;;;;;;;;5020326;28;20041;-76
2023/07/24 09:27:38;;;;;;;7.93;3.72;;;;;;;;;;5007104;28;20014;-75
2023/07/24 09:30:11;;;;;;;10.27;4.18;;;;;;;;;;5003890;28;20041;-76
2023/07/24 09:32:37;;;;;;;6.07;3.80;;;;;;;;;;5013282;28;20034;-77
2023/07/24 09:35:03;;;;;;;8.32;4.03;;;;;;;;;;5009847;28;20034;-76
2023/07/24 09:37:30;;;;;;;10.10;4.43;;;;;;;;;;4996243;28;20045;-76
2023/07/24 09:39:56;;;;;;;9.35;4.03;;;;;;;;;;4994381;28;20064;-77
2023/07/24 09:42:31;;;;;;;8.13;4.50;;;;;;;;;;4994183;28;20046;-77
2023/07/24 09:44:57;;;;;;;8.93;4.15;;;;;;;;;;4994406;28;20038;-74
2023/07/24 09:47:22;;;;;;;8.50;4.30;;;;;;;;;;4994369;28;20076;-76
2023/07/24 09:49:48;;;;;;;9.35;4.18;;;;;;;;;;4994087;28;20046;-75
2023/07/24 09:52:14;;;;;;;9.45;5.53;;;;;;;;;;4994185;28;20042;-76
2023/07/24 09:54:47;;;;;;;12.18;4.60;;;;;;;;;;4992484;28;20449;-76
2023/07/24 09:57:13;;;;;;;10.75;4.63;;;;;;;;;;4993942;28;20053;-76
2023/07/24 09:59:39;;;;;;;7.55;4.50;;;;;;;;;;4993867;28;20031;-76
2023/07/24 10:02:06;;;;;;;11.80;4.82;;;;;;;;;;4992816;28;20128;-77
2023/07/24 10:04:33;;;;;;;8.00;4.65;;;;;;;;;;4993951;28;20486;-76
2023/07/24 10:06:58;;;;;;;11.48;4.90;;;;;;;;;;4993928;28;20034;-75
2023/07/24 10:09:24;;;;;;;9.05;5.05;;;;;;;;;;4993798;28;20040;-76
2023/07/24 10:11:50;;;;;;;10.13;4.72;;;;;;;;;;5009402;28;20049;-76
2023/07/24 10:14:15;;;;;;;9.95;5.13;;;;;;;;;;4994341;28;20026;-76
2023/07/24 10:16:41;;;;;;;11.82;4.97;;;;;;;;;;5009016;28;20030;-77
2023/07/24 10:19:16;;;;;;;8.63;5.28;;;;;;;;;;4993986;28;20052;-75
2023/07/24 10:21:46;;;;;;;10.43;4.72;;;;;;;;;;4993870;28;20041;-77
2023/07/24 10:24:12;;;;;;;9.93;5.28;;;;;;;;;;4993538;28;20228;-76
2023/07/24 10:26:37;;;;;;;8.98;4.90;;;;;;;;;;4992476;28;20030;-75
2023/07/24 10:29:03;;;;;;;9.13;4.93;;;;;;;;;;5008741;28;20379;-76
2023/07/24 10:31:29;;;;;;;10.38;5.32;;;;;;;;;;4993862;28;20030;-77
2023/07/24 10:33:56;;;;;;;11.63;5.20;;;;;;;;;;4991990;28;20120;-76
2023/07/24 10:36:22;;;;;;;7.90;4.90;;;;;;;;;;4993299;28;20026;-76
2023/07/24 10:38:55;;;;;;;13.00;5.30;;;;;;;;;;4993764;28;20057;-76
2023/07/24 10:41:21;;;;;;;9.02;5.65;;;;;;;;;;4993415;28;20030;-76
2023/07/24 10:43:47;;;;;;;11.02;5.88;;;;;;;;;;5008761;28;20465;-76
2023/07/24 10:46:13;;;;;;;10.85;5.68;;;;;;;;;;5009018;28;20034;-76
2023/07/24 10:48:46;;;;;;;11.45;5.50;;;;;;;;;;4993287;28;20481;-75
2023/07/24 10:51:16;;;;;;;9.75;5.55;;;;;;;;;;5008403;28;20417;-74
2023/07/24 10:53:41;;;;;;;;;;;;;;;;;;5009226;28;20053;-76
2023/07/24 10:56:07;;;;;;;13.07;5.68;;;;;;;;;;4991965;28;19909;-74
2023/07/24 10:58:33;;;;;;;10.70;5.65;;;;;;;;;;4993371;28;20473;-74
2023/07/24 11:00:58;;;;;;;17.95;5.28;;;;;;;;;;4993585;28;20501;-75
2023/07/24 11:03:25;;;;;;;13.18;5.43;;;;;;;;;;5007020;23;20002;-82
2023/07/24 11:05:50;;;;;;;13.13;5.75;;;;;;;;;;5032540;28;20045;-81
2023/07/24 11:08:20;;;;;;;14.40;5.28;;;;;;;;;;5032565;28;20021;-82
2023/07/24 11:10:49;;;;;;;10.02;6.15;;;;;;;;;;5040565;28;20033;-82
2023/07/24 11:13:20;;;;;;;12.15;5.78;;;;;;;;;;5048582;28;20042;-81
2023/07/24 11:15:45;;;;;;;11.20;5.40;;;;;;;;;;5055408;28;20041;-82
2023/07/24 11:18:11;;;;;;;10.15;5.55;;;;;;;;;;5048209;28;20029;-81
2023/07/24 11:20:48;;;;;;;18.42;6.18;;;;;;;;;;5031710;28;20439;-81
2023/07/24 11:23:13;;;;;;;13.55;5.85;;;;;;;;;;5035352;28;20029;-82
2023/07/24 11:25:39;;;;;;;15.60;6.20;;;;;;;;;;5033521;28;20040;-82
2023/07/24 11:28:08;;;;;;;14.50;5.70;;;;;;;;;;5016169;28;20057;-83
2023/07/24 11:30:34;;;;;;;14.82;6.57;;;;;;;;;;5033384;28;20026;-82
2023/07/24 11:33:01;;;;;;;12.52;5.70;;;;;;;;;;5033229;28;20033;-82
2023/07/24 11:35:27;;;;;;;14.60;5.82;;;;;;;;;;5036211;28;20499;-82
2023/07/24 11:37:53;;;;;;;10.00;5.75;;;;;;;;;;5037627;28;20034;-82
2023/07/24 11:40:19;;;;;;;15.68;5.70;;;;;;;;;;5036662;28;20036;-82
2023/07/24 11:42:46;;;;;;;13.85;6.07;;;;;;;;;;5036621;28;20036;-81
2023/07/24 11:45:12;;;;;;;12.90;5.30;;;;;;;;;;5037772;28;20036;-83
2023/07/24 11:47:41;;;;;;;9.00;5.38;;;;;;;;;;5019642;28;20124;-83
2023/07/24 11:50:07;;;;;;;11.07;5.78;;;;;;;;;;5037817;28;20452;-84
2023/07/24 11:52:45;;;;;;;13.80;6.25;;;;;;;;;;5039040;28;20018;-83
2023/07/24 11:55:12;;;;;;;12.50;6.43;;;;;;;;;;5041793;28;20085;-82
2023/07/24 11:57:40;;;;;;;14.82;6.03;;;;;;;;;;5058825;28;20029;-82
2023/07/24 12:00:06;;;;;;;;;;;;;;;;;;5057072;28;20037;-83
2023/07/24 12:02:33;;;;;;;12.43;5.95;;;;;;;;;;5060715;28;19921;-83
2023/07/24 12:04:59;;;;;;;10.98;6.38;;;;;;;;;;5059290;28;20029;-84
2023/07/24 12:07:30;;;;;;;11.70;6.80;;;;;;;;;;5038183;28;20026;-84
2023/07/24 12:09:55;;;;;;;12.75;6.32;;;;;;;;;;5049009;28;20041;-82
2023/07/24 12:12:21;;;;;;;13.95;6.25;;;;;;;;;;5046023;28;20025;-82
2023/07/24 12:14:46;;;;;;;18.10;6.15;;;;;;;;;;5040036;28;20455;-83
2023/07/24 12:17:17;;;;;;;12.55;6.03;;;;;;;;;;5004991;28;20029;-80
2023/07/24 12:19:43;;;;;;;11.45;6.63;;;;;;;;;;5021137;28;20029;-82
2023/07/24 12:22:08;;;;;;;12.88;6.43;;;;;;;;;;5038715;28;20030;-81
2023/07/24 12:24:34;;;;;;;10.13;6.22;;;;;;;;;;5037078;28;20034;-82
2023/07/24 12:26:59;;;;;;;16.02;6.00;;;;;;;;;;5036455;28;20042;-82
2023/07/24 12:29:25;;;;;;;11.50;6.25;;;;;;;;;;5035341;28;20040;-80
2023/07/24 12:31:51;;;;;;;12.45;6.07;;;;;;;;;;5034708;28;20026;-79
2023/07/24 12:34:17;;;;;;;17.83;6.80;;;;;;;;;;5038161;28;20041;-81
2023/07/24 12:36:43;;;;;;;13.43;5.90;;;;;;;;;;5019650;28;20030;-80
2023/07/24 12:39:09;;;;;;;12.18;6.30;;;;;;;;;;5038069;28;20064;-81
2023/07/24 12:41:34;;;;;;;9.73;5.60;;;;;;;;;;5037191;28;20033;-79
2023/07/24 12:44:00;;;;;;;11.13;6.70;;;;;;;;;;5036062;28;20037;-80
2023/07/24 12:46:25;;;;;;;11.82;6.55;;;;;;;;;;5033667;28;20033;-82
2023/07/24 12:48:51;;;;;;;9.60;5.82;;;;;;;;;;5036219;28;20678;-80
2023/07/24 12:51:17;;;;;;;12.32;7.07;;;;;;;;;;5018935;28;20029;-81
2023/07/24 12:53:42;;;;;;;13.70;6.50;;;;;;;;;;5035581;28;20028;-82
2023/07/24 12:56:08;;;;;;;17.88;6.40;;;;;;;;;;5037092;28;20033;-83
2023/07/24 12:58:33;;;;;;;15.65;7.20;;;;;;;;;;5038451;28;20117;-81
2023/07/24 13:00:59;;;;;;;13.18;6.75;;;;;;;;;;5040476;28;20022;-81
2023/07/24 13:03:25;;;;;;;13.25;6.80;;;;;;;;;;5021337;28;20033;-82
2023/07/24 13:06:16;;;;;;;11.40;6.43;;;;;;;;;;5039030;28;20104;-80
2023/07/24 13:09:07;;;;;;;10.27;6.55;;;;;;;;;;5040751;28;20072;-81
2023/07/24 13:11:39;;;;;;;13.77;7.35;;;;;;;;;;5025376;28;20026;-84
2023/07/24 13:14:04;;;;;;;14.60;6.90;;;;;;;;;;5041154;28;20033;-83
2023/07/24 13:16:39;;;;;;;11.52;6.50;;;;;;;;;;5042325;28;20068;-82
2023/07/24 13:19:05;;;;;;;11.55;6.68;;;;;;;;;;5041360;28;20063;-83
2023/07/24 13:21:37;;;;;;;11.27;5.90;;;;;;;;;;5040984;28;20044;-82
2023/07/24 13:24:02;;;;;;;13.52;6.43;;;;;;;;;;5040342;28;20048;-84
2023/07/24 13:26:28;;;;;;;12.35;6.63;;;;;;;;;;5039891;28;20037;-82
2023/07/24 13:28:54;;;;;;;12.43;7.07;;;;;;;;;;5041802;28;20033;-82
2023/07/24 13:31:45;;;;;;;12.10;6.50;;;;;;;;;;5035551;28;20119;-83
2023/07/24 13:34:36;;;;;;;13.55;6.55;;;;;;;;;;5036441;28;20053;-82
2023/07/24 13:37:27;;;;;;;11.98;7.10;;;;;;;;;;5022140;28;20049;-82
2023/07/24 13:40:17;;;;;;;13.20;7.07;;;;;;;;;;5021225;28;20165;-83
2023/07/24 13:42:43;;;;;;;11.20;6.50;;;;;;;;;;5020806;28;20037;-82
2023/07/24 13:45:09;;;;;;;12.45;6.43;;;;;;;;;;5035675;28;20040;-83
2023/07/24 13:47:34;;;;;;;13.52;6.43;;;;;;;;;;5034692;28;20022;-82
2023/07/24 13:50:03;;;;;;;12.63;6.40;;;;;;;;;;5033986;28;20188;-82
2023/07/24 13:52:29;;;;;;;13.00;6.93;;;;;;;;;;5033624;28;20021;-82
2023/07/24 13:54:55;;;;;;;12.15;6.55;;;;;;;;;;5033289;28;20060;-83
2023/07/24 13:57:21;;;;;;;14.43;7.13;;;;;;;;;;5001136;28;20424;-82
2023/07/24 13:59:47;;;;;;;11.40;6.50;;;;;;;;;;5018153;28;20354;-82
2023/07/24 14:02:12;;;;;;;14.57;6.60;;;;;;;;;;5035519;28;20032;-82
2023/07/24 14:05:20;;;;;;;11.02;6.85;;;;;;;;;;5026818;28;20063;-82
2023/07/24 14:07:49;;;;;;;12.50;6.50;;;;;;;;;;5002211;28;20041;-82
2023/07/24 14:10:15;;;;;;;10.70;6.18;;;;;;;;;;5035680;28;20030;-82
2023/07/24 14:12:40;;;;;;;10.73;6.60;;;;;;;;;;5036521;28;20033;-82
2023/07/24 14:15:06;;;;;;;12.02;6.05;;;;;;;;;;5035968;28;20057;-81
2023/07/24 14:17:32;;;;;;;15.00;6.82;;;;;;;;;;5033806;28;20499;-81
2023/07/24 14:19:58;;;;;;;25.98;7.38;;;;;;;;;;5034989;28;20040;-80
2023/07/24 14:22:23;;;;;;;10.57;6.15;;;;;;;;;;5035659;28;20056;-82
2023/07/24 14:24:49;;;;;;;13.20;6.55;;;;;;;;;;5038997;28;20029;-82
2023/07/24 14:27:14;;;;;;;9.70;6.40;;;;;;;;;;5022917;28;20122;-82
2023/07/24 14:29:40;;;;;;;10.63;6.35;;;;;;;;;;5050902;28;20038;-82
2023/07/24 14:32:08;;;;;;;;;;;;;;;;;;5055254;28;20037;-82
2023/07/24 14:34:34;;;;;;;11.38;6.13;;;;;;;;;;5055955;28;19951;-82
2023/07/24 14:36:59;;;;;;;11.25;6.55;;;;;;;;;;5056964;28;20037;-82
2023/07/24 14:39:25;;;;;;;11.13;6.07;;;;;;;;;;5056618;28;20105;-81
2023/07/24 14:41:54;;;;;;;16.15;6.53;;;;;;;;;;5032950;28;20424;-82
2023/07/24 14:44:19;;;;;;;14.00;5.93;;;;;;;;;;5044273;28;20037;-80